Time;durP1;ratioP1;P1;durP2;ratioP2;P2;SDS_P1;SDS_P2;PMS_P1;PMS_P2;Temp;Humidity;BMP_temperature;BMP_pressure;BME280_temperature;BME280_humidity;BME280_pressure;Samples;Min_cycle;Max_cycle;Signal;HPM_P1;HPM_P2
2021/05/28 00:02:55;;;;;;;1.74;1.44;;;;;;;7.48;87.51;99891.91;2000538;78;20349;-72
2021/05/28 00:05:58;;;;;;;1.41;1.21;;;;;;;7.44;87.64;99882.38;2001527;81;20623;-72
2021/05/28 00:09:01;;;;;;;2.33;1.11;;;;;;;7.33;87.33;99872.72;2001414;81;20413;-72
2021/05/28 00:12:04;;;;;;;2.44;1.19;;;;;;;7.30;87.54;99867.50;2004660;80;20323;-72
2021/05/28 00:15:09;;;;;;;1.51;1.01;;;;;;;7.31;87.53;99864.94;2000784;80;21448;-72
2021/05/28 00:18:11;;;;;;;1.90;1.09;;;;;;;7.28;87.53;99868.34;2005667;78;21551;-73
2021/05/28 00:21:14;;;;;;;2.47;0.96;;;;;;;7.25;87.42;99864.84;2006333;80;20303;-72
2021/05/28 00:24:17;;;;;;;1.34;1.20;;;;;;;7.22;87.41;99864.81;2006277;80;20333;-72
2021/05/28 00:27:19;;;;;;;3.51;1.14;;;;;;;7.16;87.41;99856.94;2006327;80;20440;-73
2021/05/28 00:30:22;;;;;;;1.00;0.95;;;;;;;7.15;87.50;99863.81;2005087;78;21266;-72
2021/05/28 00:33:25;;;;;;;3.30;0.94;;;;;;;7.09;87.32;99863.72;2001176;80;20397;-71
2021/05/28 00:36:27;;;;;;;3.21;1.17;;;;;;;7.03;87.19;99870.50;1996624;81;20394;-72
2021/05/28 00:39:30;;;;;;;1.23;1.13;;;;;;;6.98;87.26;99873.84;2001279;81;20317;-72
2021/05/28 00:42:33;;;;;;;2.08;1.88;;;;;;;6.94;87.36;99876.34;2001379;80;20330;-72
2021/05/28 00:45:36;;;;;;;1.96;1.56;;;;;;;6.93;87.51;99885.81;2000915;78;32320;-72
2021/05/28 00:48:39;;;;;;;2.58;2.17;;;;;;;6.90;88.01;99883.19;2006260;80;20334;-72
2021/05/28 00:51:42;;;;;;;4.34;2.33;;;;;;;6.92;88.20;99884.06;2006317;80;20319;-72
2021/05/28 00:54:45;;;;;;;1.58;1.20;;;;;;;6.88;88.06;99884.00;2006074;80;20380;-71
2021/05/28 00:57:48;;;;;;;1.15;1.10;;;;;;;6.81;88.05;99879.53;2006126;80;20898;-72
2021/05/28 01:00:52;;;;;;;1.86;1.31;;;;;;;6.79;88.06;99888.97;2003512;79;25881;-73
2021/05/28 01:03:55;;;;;;;2.30;1.21;;;;;;;6.71;87.94;99881.09;2001676;80;20320;-72
2021/05/28 01:06:57;;;;;;;3.09;1.50;;;;;;;6.70;87.79;99889.69;2000965;81;20338;-71
2021/05/28 01:10:00;;;;;;;1.55;1.23;;;;;;;6.69;87.98;99890.53;2001326;81;20356;-71
2021/05/28 01:13:08;;;;;;;1.41;1.23;;;;;;;6.68;88.19;99888.78;2001155;81;20328;-71
2021/05/28 01:16:11;;;;;;;1.30;1.20;;;;;;;6.66;88.27;99893.06;2002433;78;21083;-71
2021/05/28 01:19:14;;;;;;;1.20;1.20;;;;;;;6.58;88.24;99887.72;2006384;80;20201;-72
2021/05/28 01:22:19;;;;;;;2.22;1.00;;;;;;;6.50;87.95;99896.16;2006133;80;20333;-71
2021/05/28 01:25:23;;;;;;;2.76;1.29;;;;;;;6.43;87.71;99902.91;2006105;80;20369;-71
2021/05/28 01:28:25;;;;;;;3.04;1.09;;;;;;;6.37;87.71;99895.03;2006440;80;20311;-71
2021/05/28 01:31:29;;;;;;;1.00;1.00;;;;;;;6.29;87.85;99894.03;2002952;78;28980;-71
2021/05/28 01:34:32;;;;;;;1.10;0.95;;;;;;;6.28;87.84;99898.31;2001450;80;20377;-73
2021/05/28 01:37:35;;;;;;;1.52;1.20;;;;;;;6.25;87.69;99900.81;2000393;81;20377;-71
2021/05/28 01:40:37;;;;;;;1.50;1.10;;;;;;;6.20;87.76;99898.97;2001629;81;20380;-71
2021/05/28 01:43:40;;;;;;;5.41;1.20;;;;;;;6.15;87.70;99903.19;2000823;81;20802;-71
2021/05/28 01:46:43;;;;;;;2.63;1.10;;;;;;;6.15;87.80;99903.19;2003000;78;21762;-71
2021/05/28 01:49:45;;;;;;;3.58;1.39;;;;;;;6.16;87.73;99899.75;2007782;80;20651;-71
2021/05/28 01:52:48;;;;;;;1.05;0.95;;;;;;;6.09;87.64;99897.88;2007020;80;20805;-71
2021/05/28 01:55:52;;;;;;;3.33;1.09;;;;;;;6.03;87.75;99893.47;2006547;80;20319;-71
2021/05/28 01:58:54;;;;;;;4.28;1.95;;;;;;;5.97;87.67;99899.38;2006650;80;20780;-71
2021/05/28 02:01:57;;;;;;;1.15;0.91;;;;;;;5.96;87.68;99904.47;2003381;78;20317;-71
2021/05/28 02:05:00;;;;;;;1.24;1.15;;;;;;;5.95;87.68;99908.78;2003055;81;20337;-71
2021/05/28 02:08:04;;;;;;;2.25;1.00;;;;;;;5.86;87.57;99908.50;2002842;81;20348;-72
2021/05/28 02:11:06;;;;;;;1.83;1.10;;;;;;;5.83;87.77;99916.19;2002949;81;20328;-72
2021/05/28 02:14:10;;;;;;;1.36;1.26;;;;;;;5.83;87.87;99908.44;2003162;81;20325;-71
2021/05/28 02:17:12;;;;;;;2.04;1.19;;;;;;;5.84;87.85;99912.75;2006053;78;22578;-71
2021/05/28 02:20:15;;;;;;;0.96;0.95;;;;;;;5.78;87.66;99909.19;2007416;80;20315;-71
2021/05/28 02:23:18;;;;;;;1.19;1.00;;;;;;;5.71;87.65;99908.16;2008325;80;20346;-71
2021/05/28 02:26:21;;;;;;;1.00;0.90;;;;;;;5.64;87.57;99901.13;2009147;80;20382;-71
2021/05/28 02:29:24;;;;;;;2.90;1.10;;;;;;;5.59;87.53;99902.75;2008314;80;20465;-71
2021/05/28 02:32:27;;;;;;;1.46;1.10;;;;;;;5.56;87.25;99912.94;2003162;78;21875;-71
2021/05/28 02:35:29;;;;;;;2.53;1.15;;;;;;;5.52;87.16;99906.84;2003209;80;21100;-71
2021/05/28 02:38:32;;;;;;;1.76;1.10;;;;;;;5.54;87.28;99902.59;2003237;81;20312;-71
2021/05/28 02:41:35;;;;;;;1.00;0.91;;;;;;;5.48;87.19;99897.31;2002599;80;20413;-71
2021/05/28 02:44:39;;;;;;;0.98;0.98;;;;;;;5.40;87.31;99896.28;2006631;80;20341;-71
2021/05/28 02:47:41;;;;;;;3.14;1.08;;;;;;;5.36;87.29;99902.16;2007005;78;20339;-71
2021/05/28 02:50:45;;;;;;;1.20;1.10;;;;;;;5.32;87.25;99905.50;2008348;80;20316;-71
2021/05/28 02:53:47;;;;;;;5.22;1.42;;;;;;;5.31;87.61;99906.34;2007907;80;20408;-71
2021/05/28 02:56:50;;;;;;;1.65;1.34;;;;;;;5.31;87.59;99902.06;2008458;80;20345;-71
2021/05/28 02:59:53;;;;;;;4.82;1.00;;;;;;;5.28;87.82;99903.69;2008586;80;20327;-71
2021/05/28 03:02:56;;;;;;;1.02;1.00;;;;;;;5.26;87.79;99911.38;2001815;79;23991;-71
2021/05/28 03:05:59;;;;;;;0.90;0.90;;;;;;;5.20;87.61;99908.63;2001744;81;20343;-71
2021/05/28 03:09:02;;;;;;;1.00;1.00;;;;;;;5.13;87.33;99912.75;2002029;81;20415;-71
2021/05/28 03:12:05;;;;;;;5.34;1.11;;;;;;;5.05;87.33;99913.41;2001439;81;20312;-71
2021/05/28 03:15:09;;;;;;;1.29;0.90;;;;;;;4.96;87.33;99906.31;2000753;80;20457;-71
2021/05/28 03:18:18;;;;;;;1.33;1.09;;;;;;;4.97;87.51;99917.47;2005798;78;22068;-71
2021/05/28 03:24:27;;;;;;;1.10;1.00;;;;;;;4.90;87.39;99908.72;2006251;80;20181;-71
2021/05/28 03:27:30;;;;;;;2.35;1.23;;;;;;;4.92;87.64;99911.34;2006818;80;20424;-71
2021/05/28 03:30:32;;;;;;;2.39;1.19;;;;;;;4.89;87.40;99917.28;2005632;78;21702;-71
2021/05/28 03:33:35;;;;;;;1.41;1.13;;;;;;;4.85;87.48;99911.19;2001137;80;21010;-71
2021/05/28 03:36:39;;;;;;;1.17;1.04;;;;;;;4.77;87.33;99909.22;2001691;81;20324;-71
2021/05/28 03:39:44;;;;;;;5.66;2.63;;;;;;;4.73;87.47;99910.84;2001156;81;20394;-72
2021/05/28 03:42:47;;;;;;;1.88;1.20;;;;;;;4.71;87.57;99912.50;2002131;81;21085;-71
2021/05/28 03:45:50;;;;;;;2.01;1.49;;;;;;;4.73;87.54;99916.00;2002376;78;21837;-71
2021/05/28 03:48:52;;;;;;;1.54;1.44;;;;;;;4.71;87.51;99909.94;2007143;80;20354;-71
2021/05/28 03:51:55;;;;;;;1.83;1.13;;;;;;;4.67;87.44;99908.13;2006665;80;20400;-71
2021/05/28 03:54:57;;;;;;;2.34;1.33;;;;;;;4.60;87.17;99913.91;2006879;80;20315;-71
2021/05/28 03:58:00;;;;;;;3.13;1.56;;;;;;;4.58;87.57;99931.00;2006443;80;20429;-71
2021/05/28 04:01:04;;;;;;;3.78;1.27;;;;;;;4.62;87.70;99930.25;2003587;78;22775;-71
2021/05/28 04:04:07;;;;;;;1.67;1.17;;;;;;;4.67;87.85;99940.66;2001597;81;20368;-71
2021/05/28 04:07:10;;;;;;;2.04;1.20;;;;;;;4.69;88.06;99937.31;2001199;81;20342;-71
2021/05/28 04:10:14;;;;;;;2.65;1.00;;;;;;;4.68;87.83;99937.28;2001358;81;20289;-71
2021/05/28 04:13:17;;;;;;;4.29;1.51;;;;;;;4.70;88.15;99931.34;2001090;80;20393;-71
2021/05/28 04:16:19;;;;;;;1.11;1.05;;;;;;;4.69;88.18;99942.47;2002451;79;58489;-71
2021/05/28 04:19:23;;;;;;;1.41;1.19;;;;;;;4.74;88.28;99942.59;2006183;80;20375;-71
2021/05/28 04:22:26;;;;;;;3.11;1.26;;;;;;;4.78;88.22;99935.00;2006328;80;20868;-71
2021/05/28 04:25:29;;;;;;;1.19;1.09;;;;;;;4.91;88.33;99950.75;2005987;80;20806;-71
2021/05/28 04:28:31;;;;;;;1.36;1.21;;;;;;;5.00;88.33;99951.00;2006622;80;20345;-70
2021/05/28 04:31:34;;;;;;;1.86;1.26;;;;;;;5.06;88.38;99957.19;2002668;78;20385;-71
2021/05/28 04:34:37;;;;;;;4.10;1.20;;;;;;;5.12;88.40;99951.34;2001547;81;20338;-71
2021/05/28 04:37:40;;;;;;;2.90;1.30;;;;;;;5.16;88.63;99956.59;2001278;81;20336;-71
2021/05/28 04:40:43;;;;;;;1.30;1.20;;;;;;;5.23;88.78;99967.06;2000880;81;20359;-71
2021/05/28 04:43:45;;;;;;;3.08;1.20;;;;;;;5.36;88.93;99967.41;2001185;81;20511;-71
2021/05/28 04:46:49;;;;;;;1.35;1.20;;;;;;;5.47;88.78;99963.41;2003169;78;20335;-71
2021/05/28 04:49:51;;;;;;;1.67;1.29;;;;;;;5.60;88.59;99966.31;2006615;80;20357;-71
2021/05/28 04:52:54;;;;;;;1.74;1.36;;;;;;;5.72;88.56;99967.44;2006347;80;20307;-71
2021/05/28 04:55:56;;;;;;;1.49;1.25;;;;;;;5.89;88.36;99964.41;2006220;80;20837;-71
2021/05/28 04:58:59;;;;;;;3.39;1.38;;;;;;;6.12;88.10;99959.84;2005526;80;20892;-71
2021/05/28 05:02:02;;;;;;;2.50;1.49;;;;;;;6.44;87.63;99963.97;2001762;78;21678;-71
2021/05/28 05:05:05;;;;;;;2.36;1.50;;;;;;;6.79;86.61;99974.13;2001206;81;20324;-71
2021/05/28 05:08:08;;;;;;;3.94;1.34;;;;;;;7.14;85.62;99965.38;2000573;81;20396;-73
2021/05/28 05:11:10;;;;;;;1.46;1.33;;;;;;;7.45;84.46;99968.50;2001001;81;20999;-73
2021/05/28 05:14:13;;;;;;;2.97;1.61;;;;;;;7.77;83.35;99971.63;2000614;81;20177;-73
2021/05/28 05:17:16;;;;;;;1.56;1.46;;;;;;;8.02;82.69;99981.50;2003841;78;21432;-72
2021/05/28 05:20:18;;;;;;;1.64;1.49;;;;;;;8.29;81.68;99982.78;2006103;80;20245;-73
2021/05/28 05:23:21;;;;;;;1.63;1.52;;;;;;;8.54;81.38;99982.28;2005085;80;20250;-73
2021/05/28 05:26:23;;;;;;;1.88;1.54;;;;;;;8.72;81.11;99979.06;2007204;80;20893;-72
2021/05/28 05:29:26;;;;;;;3.44;1.69;;;;;;;8.92;80.49;99975.00;2005988;80;20177;-72
2021/05/28 05:32:29;;;;;;;1.88;1.77;;;;;;;9.25;79.47;99976.22;1999707;78;21180;-72
2021/05/28 05:35:31;;;;;;;2.30;2.10;;;;;;;9.71;77.84;99981.84;2001047;80;21306;-73
2021/05/28 05:38:34;;;;;;;2.39;1.64;;;;;;;10.19;76.25;99981.31;2000795;81;20225;-74
2021/05/28 05:41:37;;;;;;;4.82;1.49;;;;;;;10.66;75.05;99986.84;2001128;81;20185;-73
2021/05/28 05:44:39;;;;;;;1.58;1.48;;;;;;;11.05;74.07;99991.31;2001026;81;20207;-72
2021/05/28 05:47:43;;;;;;;3.46;1.74;;;;;;;11.40;73.39;99988.81;2003923;78;20620;-73
2021/05/28 05:50:46;;;;;;;3.05;1.65;;;;;;;11.70;72.58;99987.97;2005751;80;20656;-73
2021/05/28 05:53:49;;;;;;;1.92;1.64;;;;;;;11.73;72.19;99984.50;2005738;80;20202;-73
2021/05/28 05:56:51;;;;;;;4.16;1.85;;;;;;;11.67;72.44;99994.88;2005700;80;20645;-72
2021/05/28 05:59:54;;;;;;;3.60;2.20;;;;;;;12.12;71.64;99998.41;2005105;80;20203;-73
2021/05/28 06:02:57;;;;;;;3.13;2.06;;;;;;;12.63;70.37;99997.44;2000500;78;21815;-74
2021/05/28 06:06:00;;;;;;;2.31;2.06;;;;;;;12.51;70.10;100000.94;2000133;81;20178;-73
2021/05/28 06:09:02;;;;;;;2.44;2.00;;;;;;;12.39;70.53;100006.19;2000584;81;20808;-73
2021/05/28 06:12:06;;;;;;;3.44;2.20;;;;;;;12.48;70.54;100007.91;2000189;81;20177;-73
2021/05/28 06:15:09;;;;;;;4.47;2.20;;;;;;;13.11;69.51;100012.03;2000047;80;20831;-73
2021/05/28 06:18:12;;;;;;;5.07;2.51;;;;;;;13.00;69.56;100011.22;2005418;78;20930;-72
2021/05/28 06:21:14;;;;;;;4.80;2.96;;;;;;;13.44;68.77;99997.09;2008195;80;20195;-73
2021/05/28 06:24:17;;;;;;;6.45;2.88;;;;;;;13.57;68.20;99996.13;2005458;80;20263;-73
2021/05/28 06:27:20;;;;;;;5.84;3.15;;;;;;;13.99;67.03;100007.97;2005273;80;20964;-73
2021/05/28 06:30:22;;;;;;;4.70;3.03;;;;;;;14.07;65.84;100002.72;2004194;79;27883;-73
2021/05/28 06:33:25;;;;;;;4.96;2.86;;;;;;;13.87;65.19;100000.28;2000840;80;20491;-73
2021/05/28 06:36:29;;;;;;;6.26;3.22;;;;;;;14.10;65.07;100006.16;2001390;81;20201;-73
2021/05/28 06:39:31;;;;;;;7.40;3.19;;;;;;;14.29;63.88;100011.22;2001766;81;20203;-73
2021/05/28 06:42:34;;;;;;;9.96;3.78;;;;;;;14.55;63.29;100005.78;2002059;81;20177;-75
2021/05/28 06:45:38;;;;;;;6.41;3.45;;;;;;;14.72;62.55;100009.94;2002755;78;20288;-74
2021/05/28 06:48:40;;;;;;;9.18;3.05;;;;;;;14.87;63.65;100002.78;2007374;80;20202;-74
2021/05/28 06:51:44;;;;;;;4.89;3.14;;;;;;;14.74;64.33;100010.78;2006990;80;20242;-74
2021/05/28 06:54:47;;;;;;;4.82;2.85;;;;;;;14.69;63.70;100015.19;2006919;80;20176;-73
2021/05/28 06:57:50;;;;;;;6.63;2.76;;;;;;;14.72;63.38;100014.28;2006473;80;20218;-73
2021/05/28 07:00:53;;;;;;;4.66;2.22;;;;;;;14.64;64.44;100005.66;2006293;78;23497;-73
2021/05/28 07:04:01;;;;;;;3.10;2.05;;;;;;;14.78;63.60;100007.25;2006864;80;20251;-72
2021/05/28 07:07:04;;;;;;;5.63;2.19;;;;;;;15.00;63.53;100004.38;2007104;80;20181;-75
2021/05/28 07:10:08;;;;;;;4.35;2.06;;;;;;;15.06;63.70;100018.22;2007132;80;20161;-78
2021/05/28 07:13:11;;;;;;;6.88;2.46;;;;;;;15.08;63.11;100013.88;2006694;80;20177;-77
2021/05/28 07:16:14;;;;;;;4.85;2.45;;;;;;;15.15;63.04;100008.53;2004379;80;20731;-77
2021/05/28 07:19:16;;;;;;;6.06;3.20;;;;;;;15.10;62.43;100011.22;2001884;81;20174;-77
2021/05/28 07:22:19;;;;;;;4.13;2.47;;;;;;;14.96;61.02;99993.09;2001881;80;20205;-77
2021/05/28 07:25:22;;;;;;;4.38;2.60;;;;;;;14.92;58.69;100003.59;2002116;80;20643;-77
2021/05/28 07:28:26;;;;;;;5.38;1.69;;;;;;;14.74;59.65;100002.06;2001966;81;21018;-73
2021/05/28 07:31:28;;;;;;;2.59;2.08;;;;;;;14.67;61.93;99996.03;2003524;80;20764;-72
2021/05/28 07:34:31;;;;;;;3.11;2.25;;;;;;;14.66;61.74;100004.75;2006684;80;20720;-77
2021/05/28 07:37:34;;;;;;;4.57;2.00;;;;;;;14.76;61.76;99998.56;2007253;80;20181;-77
2021/05/28 07:40:38;;;;;;;5.46;2.01;;;;;;;14.75;61.43;99993.34;2006667;80;20185;-76
2021/05/28 07:43:41;;;;;;;5.55;1.76;;;;;;;14.87;61.55;99989.69;2007350;80;20165;-76
2021/05/28 07:46:44;;;;;;;4.69;1.88;;;;;;;15.03;61.48;99986.88;2003374;80;20233;-77
2021/05/28 07:49:46;;;;;;;3.61;2.19;;;;;;;15.08;60.91;99992.94;2002177;81;20182;-76
2021/05/28 07:52:49;;;;;;;4.19;2.05;;;;;;;15.02;61.05;99993.00;1998958;81;20181;-75
2021/05/28 07:55:53;;;;;;;5.15;2.44;;;;;;;14.95;61.13;99996.59;2000723;81;20278;-75
2021/05/28 07:58:56;;;;;;;2.76;2.03;;;;;;;15.03;60.57;99992.09;2001798;81;20181;-78
2021/05/28 08:01:59;;;;;;;2.59;2.19;;;;;;;15.10;61.37;99992.91;2003798;78;22120;-76
2021/05/28 08:05:02;;;;;;;3.81;2.06;;;;;;;15.22;60.21;99986.63;2007049;80;20226;-77
2021/05/28 08:08:09;;;;;;;3.51;2.16;;;;;;;15.27;59.36;99987.47;2007680;80;20246;-77
2021/05/28 08:11:12;;;;;;;3.58;1.99;;;;;;;15.61;60.01;99988.69;2007507;80;20193;-78
2021/05/28 08:14:14;;;;;;;3.60;2.11;;;;;;;15.84;56.95;99993.59;2007619;80;20196;-78
2021/05/28 08:17:17;;;;;;;3.24;1.79;;;;;;;15.98;58.38;99986.38;2003181;78;23416;-76
2021/05/28 08:20:20;;;;;;;3.35;2.10;;;;;;;16.15;57.84;99993.94;2000998;81;20190;-76
2021/05/28 08:23:22;;;;;;;7.11;2.15;;;;;;;16.15;56.60;99991.31;2001294;81;20744;-77
2021/05/28 08:26:25;;;;;;;5.10;1.98;;;;;;;16.10;56.49;99987.91;2001461;81;20765;-77
2021/05/28 08:29:28;;;;;;;5.57;1.75;;;;;;;16.18;55.30;99993.91;2002748;81;20636;-77
2021/05/28 08:32:31;;;;;;;3.46;1.95;;;;;;;16.35;53.88;99990.13;2005446;78;21213;-77
2021/05/28 08:35:33;;;;;;;3.38;1.86;;;;;;;16.31;53.27;99995.38;2006352;80;20212;-78
2021/05/28 08:38:36;;;;;;;4.63;2.10;;;;;;;16.44;53.29;99989.94;2006242;80;20258;-74
2021/05/28 08:41:43;;;;;;;4.91;1.73;;;;;;;16.68;54.53;99989.47;2006257;80;20660;-74
2021/05/28 08:44:46;;;;;;;4.13;1.70;;;;;;;16.85;53.67;99991.75;2106966;69;20205;-74
2021/05/28 08:47:49;;;;;;;5.76;2.51;;;;;;;16.96;52.52;99989.81;2005494;78;78651;-74
2021/05/28 08:50:52;;;;;;;5.07;1.96;;;;;;;16.98;52.60;99988.00;2006570;80;20695;-74
2021/05/28 08:53:55;;;;;;;4.75;2.00;;;;;;;17.24;51.95;99987.47;2006577;80;20185;-74
2021/05/28 08:56:57;;;;;;;5.05;2.04;;;;;;;17.46;49.56;99975.56;2006859;80;20973;-74
2021/05/28 09:00:01;;;;;;;2.96;1.91;;;;;;;17.43;50.50;99985.28;2007014;80;20222;-74
2021/05/28 09:03:21;;;;;;;4.68;1.95;;;;;;;17.37;50.60;99988.91;2002415;78;23986;-77
2021/05/28 09:06:42;;;;;;;3.79;2.09;;;;;;;17.77;50.97;99977.50;2003185;81;20177;-77
2021/05/28 09:09:44;;;;;;;2.88;1.44;;;;;;;17.82;49.11;99980.88;2003138;81;20207;-75
2021/05/28 09:12:49;;;;;;;3.26;2.00;;;;;;;17.57;50.30;99980.56;2001250;81;20919;-74
2021/05/28 09:16:17;;;;;;;2.88;1.60;;;;;;;17.56;50.05;99977.97;2001993;78;20161;-75
2021/05/28 09:19:23;;;;;;;2.25;1.49;;;;;;;17.47;50.28;99979.94;2003669;80;20795;-75
2021/05/28 09:22:38;;;;;;;3.24;2.04;;;;;;;17.47;50.79;99982.56;2006839;80;20308;-75
2021/05/28 09:25:51;;;;;;;3.74;1.69;;;;;;;17.58;51.57;99978.78;2006705;80;20728;-75
2021/05/28 09:28:55;;;;;;;4.34;1.79;;;;;;;17.60;50.58;99982.28;2002715;80;20595;-75
2021/05/28 09:31:58;;;;;;;6.21;2.06;;;;;;;17.58;50.52;99981.41;2002910;78;21664;-75
2021/05/28 09:35:02;;;;;;;2.97;1.89;;;;;;;17.39;49.97;99987.09;2001736;80;20693;-75
2021/05/28 09:38:05;;;;;;;1.91;1.40;;;;;;;17.37;50.58;99986.28;2001054;81;20165;-75
2021/05/28 09:41:07;;;;;;;2.47;1.58;;;;;;;17.33;51.60;99989.88;2001165;81;20205;-74
2021/05/28 09:44:16;;;;;;;8.76;2.06;;;;;;;17.37;50.19;99990.66;2001701;81;20245;-74
2021/05/28 09:47:19;;;;;;;223.84;75.55;;;;;;;17.35;50.12;99985.44;2004451;78;21045;-74
2021/05/28 09:50:22;;;;;;;7.45;3.70;;;;;;;17.42;50.42;99981.81;2006417;80;20232;-75
2021/05/28 09:53:30;;;;;;;3.46;1.98;;;;;;;17.99;49.88;99983.09;2006739;80;20189;-75
2021/05/28 09:56:34;;;;;;;4.39;2.01;;;;;;;18.54;48.34;99972.00;2006567;80;20205;-75
2021/05/28 09:59:45;;;;;;;2.50;1.58;;;;;;;18.97;48.32;99971.66;2008201;80;20514;-77
2021/05/28 10:02:49;;;;;;;4.69;1.60;;;;;;;19.28;46.90;99962.84;2003567;78;23142;-78
2021/05/28 10:05:55;;;;;;;2.47;1.44;;;;;;;19.53;46.99;99958.53;2005109;81;20618;-78
2021/05/28 10:08:59;;;;;;;3.38;1.27;;;;;;;19.02;46.15;99966.25;2004682;81;20262;-77
2021/05/28 10:12:03;;;;;;;3.15;1.34;;;;;;;19.09;46.97;99956.41;2003616;81;20153;-78
2021/05/28 10:15:08;;;;;;;6.26;1.20;;;;;;;19.01;46.22;99961.88;2002880;80;20189;-77
2021/05/28 10:18:12;;;;;;;2.24;1.17;;;;;;;18.78;46.59;99954.69;2009454;78;23110;-77
2021/05/28 10:21:16;;;;;;;2.14;1.00;;;;;;;19.05;45.61;99953.03;2007988;80;20181;-76
2021/05/28 10:24:19;;;;;;;2.59;1.20;;;;;;;19.17;45.46;99949.13;2005678;80;20877;-76
2021/05/28 10:27:25;;;;;;;2.85;1.00;;;;;;;19.59;45.47;99944.34;2006201;80;20282;-77
2021/05/28 10:30:36;;;;;;;1.67;0.94;;;;;;;19.44;43.54;99943.03;2005319;78;21514;-77
2021/05/28 10:33:47;;;;;;;1.81;0.95;;;;;;;19.11;43.98;99947.56;2005575;80;20374;-76
2021/05/28 10:36:50;;;;;;;2.31;1.00;;;;;;;18.72;45.43;99946.97;2005032;80;20204;-77
2021/05/28 10:39:53;;;;;;;2.33;0.95;;;;;;;18.41;45.00;99934.63;2005112;80;20165;-76
2021/05/28 10:42:57;;;;;;;3.00;0.90;;;;;;;18.37;46.66;99934.78;2005523;80;20882;-76
2021/05/28 10:46:08;;;;;;;1.27;0.93;;;;;;;18.54;47.48;99922.03;2006867;78;35651;-76
2021/05/28 10:49:12;;;;;;;3.49;1.06;;;;;;;18.83;45.87;99917.69;2007303;80;20276;-76
2021/05/28 10:52:29;;;;;;;1.80;0.89;;;;;;;18.89;47.03;99917.53;2004786;80;20190;-77
2021/05/28 10:56:08;;;;;;;1.56;0.99;;;;;;;19.11;46.30;99920.38;2005170;80;20433;-76
2021/05/28 10:59:21;;;;;;;1.34;0.96;;;;;;;19.91;45.31;99927.44;2005586;80;20963;-77
2021/05/28 11:02:44;;;;;;;3.99;1.63;;;;;;;20.19;43.18;99917.69;2000365;78;47337;-75
2021/05/28 11:05:50;;;;;;;1.51;1.17;;;;;;;19.92;41.23;99919.47;2000756;81;20182;-74
2021/05/28 11:09:12;;;;;;;1.45;1.11;;;;;;;19.85;42.79;99912.69;2001237;81;20201;-75
2021/05/28 11:12:17;;;;;;;0.99;0.61;;;;;;;20.32;42.14;99910.19;2002522;81;20166;-75
2021/05/28 11:15:28;;;;;;;1.65;1.05;;;;;;;20.78;41.64;99904.09;2003493;80;20169;-77
2021/05/28 11:18:32;;;;;;;3.34;1.34;;;;;;;21.04;40.78;99904.91;2008657;80;20177;-76
2021/05/28 11:21:39;;;;;;;1.60;0.81;;;;;;;20.71;38.36;99892.06;2008780;80;21046;-76
2021/05/28 11:24:43;;;;;;;3.21;0.94;;;;;;;21.08;41.19;99895.94;2007442;80;20195;-75
2021/05/28 11:27:55;;;;;;;2.66;0.82;;;;;;;21.28;41.02;99896.03;2008179;80;20209;-73
2021/05/28 11:31:00;;;;;;;3.25;0.73;;;;;;;21.41;39.85;99894.63;2005256;78;20185;-76
2021/05/28 11:34:02;;;;;;;1.44;0.70;;;;;;;21.69;39.78;99883.75;2003677;80;20282;-77
2021/05/28 11:37:05;;;;;;;1.55;0.66;;;;;;;22.10;39.29;99875.03;2003325;81;20177;-76
2021/05/28 11:40:11;;;;;;;1.14;0.54;;;;;;;22.46;38.96;99876.03;2004291;81;20219;-77
2021/05/28 11:43:16;;;;;;;2.15;0.69;;;;;;;22.45;37.56;99865.50;2002799;80;20174;-75
2021/05/28 11:46:23;;;;;;;1.67;0.60;;;;;;;22.70;36.93;99873.16;2000438;78;20763;-75
2021/05/28 11:49:27;;;;;;;1.41;0.68;;;;;;;22.74;37.43;99869.44;2001214;81;20323;-74
2021/05/28 11:52:29;;;;;;;0.91;0.50;;;;;;;22.90;37.65;99865.19;2004559;81;20541;-76
2021/05/28 11:55:41;;;;;;;1.15;0.60;;;;;;;23.13;36.57;99846.38;2000448;81;21005;-73
2021/05/28 11:58:50;;;;;;;0.80;0.60;;;;;;;23.04;36.32;99848.63;2001080;81;20271;-77
2021/05/28 12:01:53;;;;;;;4.21;0.76;;;;;;;22.81;35.71;99855.00;2005560;78;24436;-78
2021/05/28 12:04:56;;;;;;;2.13;0.60;;;;;;;22.57;37.72;99859.63;2013113;80;20203;-75
2021/05/28 12:08:21;;;;;;;2.35;0.49;;;;;;;22.54;35.62;99844.75;2013185;80;20230;-78
2021/05/28 12:11:24;;;;;;;1.38;0.63;;;;;;;22.22;36.51;99848.00;2016181;80;20588;-78
2021/05/28 12:14:27;;;;;;;1.76;0.60;;;;;;;21.99;36.57;99846.34;2013779;80;20165;-80
2021/05/28 12:17:31;;;;;;;1.25;0.60;;;;;;;21.75;34.98;99850.94;2010984;78;49501;-78
2021/05/28 12:20:35;;;;;;;1.41;0.60;;;;;;;21.89;37.17;99856.47;2008308;80;20181;-75
2021/05/28 12:23:40;;;;;;;1.38;0.50;;;;;;;22.07;37.00;99846.03;2004415;80;20660;-75
2021/05/28 12:26:44;;;;;;;1.15;0.60;;;;;;;22.16;37.54;99843.84;2005598;80;20197;-75
2021/05/28 12:29:46;;;;;;;0.66;0.41;;;;;;;22.59;36.86;99853.34;2005374;80;20165;-75
2021/05/28 12:32:49;;;;;;;1.13;0.50;;;;;;;22.71;36.30;99845.75;2000010;78;21817;-75
2021/05/28 12:35:58;;;;;;;0.99;0.50;;;;;;;23.09;35.93;99847.47;2001374;81;20193;-75
2021/05/28 12:39:08;;;;;;;1.00;0.47;;;;;;;22.75;33.39;99836.75;2005217;81;20190;-79
2021/05/28 12:42:20;;;;;;;1.35;0.82;;;;;;;22.62;35.23;99844.38;2010361;80;20234;-80
2021/05/28 12:45:33;;;;;;;0.88;0.51;;;;;;;22.60;36.15;99827.72;2005990;80;20864;-78
2021/05/28 12:48:44;;;;;;;3.22;0.90;;;;;;;22.38;36.08;99830.50;2011182;80;20177;-80
2021/05/28 12:51:48;;;;;;;2.34;0.71;;;;;;;22.19;35.69;99833.13;2010916;80;20161;-78
2021/05/28 12:54:58;;;;;;;3.64;0.70;;;;;;;22.39;36.33;99826.94;2009493;80;20172;-80
2021/05/28 12:58:02;;;;;;;4.43;0.70;;;;;;;22.46;33.94;99817.81;2011721;80;20204;-78
2021/05/28 13:01:06;;;;;;;0.74;0.49;;;;;;;22.48;35.35;99815.94;2006958;79;23113;-77
2021/05/28 13:04:09;;;;;;;2.34;0.49;;;;;;;22.43;35.41;99817.91;2003419;80;20215;-76
2021/05/28 13:07:12;;;;;;;3.58;0.50;;;;;;;22.47;36.39;99821.31;2001918;81;20234;-78
2021/05/28 13:10:17;;;;;;;75.90;25.06;;;;;;;22.60;35.87;99814.47;2003003;81;20166;-79
2021/05/28 13:13:30;;;;;;;9.34;2.11;;;;;;;22.63;35.61;99814.38;2003620;80;20189;-79
2021/05/28 13:16:37;;;;;;;2.09;0.80;;;;;;;22.90;35.38;99823.66;2005853;79;22707;-76
2021/05/28 13:19:47;;;;;;;0.91;0.57;;;;;;;23.05;34.84;99818.56;2006667;80;20172;-75
2021/05/28 13:22:54;;;;;;;1.01;0.40;;;;;;;23.29;34.48;99817.34;2002824;80;20172;-75
2021/05/28 13:26:07;;;;;;;1.06;0.45;;;;;;;23.30;33.81;99811.09;2006358;80;20169;-73
2021/05/28 13:29:11;;;;;;;4.11;1.26;;;;;;;23.58;34.44;99805.31;2007915;80;20624;-74
2021/05/28 13:32:21;;;;;;;2.96;0.85;;;;;;;23.45;33.76;99814.78;2002879;78;21999;-71
2021/05/28 13:35:24;;;;;;;3.30;0.77;;;;;;;22.69;34.56;99814.06;2001926;80;21257;-72
2021/05/28 13:38:27;;;;;;;6.13;1.04;;;;;;;22.22;34.78;99821.53;2001846;81;20209;-77
2021/05/28 13:41:39;;;;;;;1.70;0.74;;;;;;;21.88;36.14;99811.56;2001797;81;20635;-73
2021/05/28 13:44:42;;;;;;;1.98;0.55;;;;;;;22.09;36.72;99812.47;2002449;80;20205;-72
2021/05/28 13:47:44;;;;;;;1.34;0.45;;;;;;;22.28;34.94;99802.78;2006641;78;23848;-73
2021/05/28 13:50:48;;;;;;;2.49;0.50;;;;;;;22.14;34.45;99815.75;2007810;80;20327;-72
2021/05/28 13:53:51;;;;;;;1.99;0.40;;;;;;;;;;2008150;80;20238;-75
2021/05/28 13:56:53;;;;;;;2.25;0.77;;;;;;;22.16;34.88;99806.81;2007600;80;20165;-73
2021/05/28 13:59:56;;;;;;;1.66;0.70;;;;;;;22.06;35.44;99812.56;2007652;80;20194;-72
2021/05/28 14:03:00;;;;;;;1.54;0.50;;;;;;;22.26;35.93;99805.50;2001396;78;20206;-75
2021/05/28 14:06:03;;;;;;;1.42;0.50;;;;;;;22.29;35.77;99810.63;2002764;81;20780;-72
2021/05/28 14:09:06;;;;;;;1.58;0.45;;;;;;;22.11;36.10;99815.91;2002617;81;20228;-76
2021/05/28 14:12:09;;;;;;;2.92;0.99;;;;;;;21.82;35.86;99814.50;2004005;81;20203;-78
2021/05/28 14:15:13;;;;;;;2.92;0.70;;;;;;;21.90;36.73;99804.44;2003139;80;20166;-75
2021/05/28 14:18:20;;;;;;;1.51;1.10;;;;;;;21.89;36.38;99802.72;2007178;80;20711;-77
2021/05/28 14:21:23;;;;;;;2.89;1.30;;;;;;;22.17;35.70;99802.38;2008367;80;20190;-74
2021/05/28 14:24:26;;;;;;;0.77;0.70;;;;;;;22.37;35.78;99797.03;2008796;80;20178;-77
2021/05/28 14:27:31;;;;;;;2.26;0.50;;;;;;;22.60;35.10;99798.59;2008388;80;20203;-75
2021/05/28 14:30:36;;;;;;;1.70;0.76;;;;;;;22.67;33.88;99800.06;2006563;78;20241;-75
2021/05/28 14:36:53;;;;;;;0.95;0.50;;;;;;;23.37;33.91;99793.13;2006934;80;20210;-72
2021/05/28 14:39:58;;;;;;;1.40;0.52;;;;;;;23.68;32.39;99795.94;2007355;80;20177;-72